Time;durP1;ratioP1;P1;durP2;ratioP2;P2;SDS_P1;SDS_P2;PMS_P1;PMS_P2;Temp;Humidity;BMP_temperature;BMP_pressure;BME280_temperature;BME280_humidity;BME280_pressure;Samples;Min_cycle;Max_cycle;Signal;HPM_P1;HPM_P2
2021/09/27 00:00:20;;;;;;;38.22;21.75;;;16.30;99.90;;;;;;5018809;28;20060;-93
2021/09/27 00:02:47;;;;;;;53.10;24.17;;;16.20;99.90;;;;;;5020657;28;20406;-93
2021/09/27 00:05:16;;;;;;;53.90;24.30;;;16.20;99.90;;;;;;5018698;28;20562;-93
2021/09/27 00:07:43;;;;;;;34.30;20.77;;;16.20;99.90;;;;;;5019001;28;20051;-93
2021/09/27 00:10:13;;;;;;;37.88;20.73;;;16.20;99.90;;;;;;5018691;28;20057;-93
2021/09/27 00:12:40;;;;;;;46.95;23.38;;;16.30;99.90;;;;;;5018878;28;20063;-94
2021/09/27 00:15:10;;;;;;;35.67;19.65;;;16.30;99.90;;;;;;5018240;28;20045;-92
2021/09/27 00:17:37;;;;;;;34.03;19.17;;;16.30;99.90;;;;;;5018830;28;20060;-92
2021/09/27 00:20:06;;;;;;;31.45;20.00;;;16.30;99.90;;;;;;5018583;28;20128;-93
2021/09/27 00:22:33;;;;;;;39.42;20.67;;;16.30;99.90;;;;;;5018462;28;20128;-93
2021/09/27 00:25:00;;;;;;;29.63;19.55;;;16.20;99.90;;;;;;5018231;28;20049;-92
2021/09/27 00:27:26;;;;;;;33.13;18.98;;;16.30;99.90;;;;;;5018468;28;20057;-91
2021/09/27 00:29:53;;;;;;;30.73;19.13;;;16.30;99.90;;;;;;5018528;28;20053;-92
2021/09/27 00:32:20;;;;;;;27.13;17.77;;;16.30;99.90;;;;;;5018285;28;20049;-93
2021/09/27 00:34:47;;;;;;;36.38;19.20;;;16.30;99.90;;;;;;5017887;28;20430;-93
2021/09/27 00:37:13;;;;;;;33.60;19.40;;;16.30;99.90;;;;;;5018929;28;20045;-93
2021/09/27 00:39:40;;;;;;;26.95;18.52;;;16.20;99.90;;;;;;5034216;28;20096;-92
2021/09/27 00:42:07;;;;;;;30.63;18.23;;;16.20;99.90;;;;;;5039500;28;20049;-93
2021/09/27 00:44:36;;;;;;;42.20;20.60;;;16.30;99.90;;;;;;5018168;28;20063;-93
2021/09/27 00:47:04;;;;;;;49.40;21.50;;;16.20;99.90;;;;;;5018365;28;20050;-93
2021/09/27 00:49:31;;;;;;;44.55;21.05;;;16.10;99.90;;;;;;5018057;28;20053;-92
2021/09/27 00:51:58;;;;;;;32.58;19.58;;;16.10;99.90;;;;;;5017999;28;20045;-91
2021/09/27 00:54:30;;;;;;;30.33;19.13;;;16.20;99.90;;;;;;5017827;28;20052;-91
2021/09/27 00:57:12;;;;;;;30.63;19.52;;;16.20;99.90;;;;;;5017881;28;20067;-90
2021/09/27 00:59:41;;;;;;;38.95;19.88;;;16.20;99.90;;;;;;5018199;28;20057;-91
2021/09/27 01:02:10;;;;;;;27.05;17.85;;;16.20;99.90;;;;;;5018051;28;20060;-91
2021/09/27 01:04:37;;;;;;;27.05;17.88;;;16.20;99.90;;;;;;5017880;28;20052;-91
2021/09/27 01:07:44;;;;;;;26.85;17.45;;;16.20;99.90;;;;;;5017590;28;20054;-91
2021/09/27 01:10:29;;;;;;;40.17;19.45;;;16.20;99.90;;;;;;4958325;28;20174;-91
2021/09/27 01:13:08;;;;;;;25.05;15.35;;;16.20;99.90;;;;;;4993967;28;20050;-91
2021/09/27 01:15:55;;;;;;;28.55;17.70;;;16.20;99.90;;;;;;4994436;28;20050;-91
2021/09/27 01:18:47;;;;;;;27.58;17.02;;;16.30;99.90;;;;;;4994674;28;20483;-91
2021/09/27 01:21:30;;;;;;;35.83;18.35;;;16.20;99.90;;;;;;4994497;28;20050;-89
2021/09/27 01:24:31;;;;;;;29.27;19.25;;;16.20;99.90;;;;;;4994356;28;20073;-91
2021/09/27 01:27:09;;;;;;;33.80;19.67;;;16.20;99.90;;;;;;4994424;28;20048;-90
2021/09/27 01:30:14;;;;;;;28.85;18.08;;;16.10;99.90;;;;;;4994569;28;20057;-90
2021/09/27 01:32:48;;;;;;;28.38;18.25;;;16.20;99.90;;;;;;4994176;28;20153;-90
2021/09/27 01:35:24;;;;;;;27.15;18.52;;;16.20;99.90;;;;;;4993882;28;20054;-90
2021/09/27 01:38:16;;;;;;;25.73;16.83;;;16.30;99.90;;;;;;4994422;28;20064;-91
2021/09/27 01:41:08;;;;;;;29.15;18.60;;;16.20;99.90;;;;;;4994159;28;20042;-91
2021/09/27 01:44:08;;;;;;;32.88;18.85;;;16.30;99.90;;;;;;4994354;28;20479;-91
2021/09/27 01:46:55;;;;;;;29.35;18.60;;;16.30;99.90;;;;;;4993127;28;20046;-91
2021/09/27 01:49:37;;;;;;;29.45;18.23;;;16.20;99.90;;;;;;4993758;28;20136;-90
2021/09/27 01:52:29;;;;;;;30.48;19.33;;;16.20;99.90;;;;;;4994189;28;20407;-91
2021/09/27 01:55:01;;;;;;;36.88;19.55;;;16.20;99.90;;;;;;4994156;28;20043;-91
2021/09/27 01:57:44;;;;;;;37.87;20.13;;;16.20;99.90;;;;;;5003997;28;20101;-90
2021/09/27 02:00:18;;;;;;;30.55;18.10;;;16.20;99.90;;;;;;5018496;28;20381;-90
2021/09/27 02:03:07;;;;;;;28.80;17.85;;;16.10;99.90;;;;;;4994068;28;20513;-91
2021/09/27 02:05:42;;;;;;;27.90;18.30;;;16.10;99.90;;;;;;4993538;28;20064;-91
2021/09/27 02:08:22;;;;;;;25.80;17.95;;;16.20;99.90;;;;;;4993890;28;20533;-91
2021/09/27 02:10:55;;;;;;;25.02;17.17;;;16.20;99.90;;;;;;5000922;28;20057;-91
2021/09/27 02:13:35;;;;;;;54.25;23.90;;;16.20;99.90;;;;;;5013258;28;20141;-93
2021/09/27 02:16:09;;;;;;;33.75;20.15;;;16.10;99.90;;;;;;5013202;28;20425;-94
2021/09/27 02:18:54;;;;;;;30.25;18.63;;;16.10;99.90;;;;;;5013618;28;20050;-94
2021/09/27 02:21:31;;;;;;;25.85;17.23;;;16.10;99.90;;;;;;5013012;28;20061;-92
2021/09/27 02:24:18;;;;;;;27.60;17.17;;;16.10;99.90;;;;;;5013404;28;20046;-93
2021/09/27 02:26:49;;;;;;;26.35;16.83;;;16.10;99.90;;;;;;5013074;28;20068;-93
2021/09/27 02:29:17;;;;;;;26.20;16.95;;;16.10;99.90;;;;;;5013062;28;20064;-92
2021/09/27 02:32:02;;;;;;;21.33;16.08;;;16.20;99.90;;;;;;5013021;28;20054;-92
2021/09/27 02:34:52;;;;;;;24.25;16.58;;;16.20;99.90;;;;;;5013047;28;20072;-91
2021/09/27 02:37:25;;;;;;;22.17;15.32;;;16.20;99.90;;;;;;5012804;28;20141;-92
2021/09/27 02:40:17;;;;;;;23.23;15.93;;;16.20;99.90;;;;;;5013077;28;20059;-91
2021/09/27 02:42:48;;;;;;;29.77;17.35;;;16.20;99.90;;;;;;5012846;28;20049;-92
2021/09/27 02:45:16;;;;;;;40.95;19.52;;;16.20;99.90;;;;;;5012687;28;20058;-92
2021/09/27 02:47:51;;;;;;;26.10;16.33;;;16.00;99.90;;;;;;5013145;28;20074;-92
2021/09/27 02:50:27;;;;;;;27.00;16.38;;;16.00;99.90;;;;;;5012865;28;20046;-92
2021/09/27 02:52:56;;;;;;;28.23;17.38;;;16.10;99.90;;;;;;5012968;28;20494;-92
2021/09/27 02:55:35;;;;;;;31.13;17.42;;;16.10;99.90;;;;;;5012357;28;20050;-93
2021/09/27 02:58:21;;;;;;;27.02;15.93;;;16.00;99.90;;;;;;5015707;28;20056;-93
2021/09/27 03:01:20;;;;;;;27.33;16.95;;;16.00;99.90;;;;;;5016964;28;20566;-93
2021/09/27 03:04:06;;;;;;;19.30;14.40;;;16.10;99.90;;;;;;5011872;28;20054;-93
2021/09/27 03:07:17;;;;;;;22.63;15.10;;;16.10;99.90;;;;;;5016854;28;20050;-93
2021/09/27 03:10:05;;;;;;;25.50;16.45;;;16.10;99.90;;;;;;5016890;28;20050;-93
2021/09/27 03:12:37;;;;;;;21.42;15.20;;;16.10;99.90;;;;;;5016658;28;20403;-93
2021/09/27 03:15:43;;;;;;;35.30;18.48;;;16.10;99.90;;;;;;5018293;28;20052;-93
2021/09/27 03:18:25;;;;;;;25.30;16.42;;;16.10;99.90;;;;;;5038970;28;20030;-92
2021/09/27 03:21:16;;;;;;;39.00;18.63;;;16.10;99.90;;;;;;5020256;28;20410;-92
2021/09/27 03:23:54;;;;;;;21.17;15.10;;;16.10;99.90;;;;;;5016286;28;20417;-92
2021/09/27 03:26:57;;;;;;;19.67;15.10;;;16.10;99.90;;;;;;5016387;28;20049;-92
2021/09/27 03:30:00;;;;;;;24.80;16.10;;;16.20;99.90;;;;;;5016299;28;20058;-92
2021/09/27 03:33:00;;;;;;;21.70;16.20;;;16.20;99.90;;;;;;5016206;28;20410;-93
2021/09/27 03:35:39;;;;;;;22.60;16.17;;;16.20;99.90;;;;;;5015926;28;20053;-92
2021/09/27 03:38:20;;;;;;;20.95;16.02;;;16.20;99.90;;;;;;5016109;28;20056;-92
2021/09/27 03:41:05;;;;;;;20.88;15.57;;;16.20;99.90;;;;;;5016168;28;20049;-93
2021/09/27 03:43:31;;;;;;;20.92;14.77;;;16.20;99.90;;;;;;5015764;28;20132;-92
2021/09/27 03:46:08;;;;;;;27.45;16.80;;;16.20;99.90;;;;;;5015908;28;20056;-92
2021/09/27 03:48:45;;;;;;;15.82;13.27;;;16.20;99.90;;;;;;5015993;28;20077;-93
2021/09/27 03:51:26;;;;;;;21.27;15.30;;;16.10;99.90;;;;;;5015443;28;20392;-93
2021/09/27 03:54:11;;;;;;;18.77;13.90;;;16.10;99.90;;;;;;5015853;28;20046;-94
2021/09/27 03:56:46;;;;;;;23.40;14.98;;;16.10;99.90;;;;;;5015748;28;20050;-93
2021/09/27 03:59:16;;;;;;;24.92;16.80;;;16.10;99.90;;;;;;5015577;28;20049;-93
2021/09/27 04:02:08;;;;;;;26.05;17.13;;;16.10;99.90;;;;;;5015734;28;20133;-93
2021/09/27 04:04:59;;;;;;;36.10;19.95;;;16.20;99.90;;;;;;5015220;28;20590;-93
2021/09/27 04:07:39;;;;;;;26.33;18.80;;;16.20;99.90;;;;;;5008794;28;20084;-93
2021/09/27 04:10:16;;;;;;;27.88;18.58;;;16.20;99.90;;;;;;5015963;28;20053;-92
2021/09/27 04:12:55;;;;;;;25.88;17.38;;;16.20;99.90;;;;;;5018757;28;20045;-92
2021/09/27 04:15:33;;;;;;;26.88;18.38;;;16.20;99.90;;;;;;5018484;28;20071;-92
2021/09/27 04:18:25;;;;;;;30.15;17.63;;;16.30;99.90;;;;;;5019315;28;20049;-92
2021/09/27 04:21:17;;;;;;;28.77;17.85;;;16.30;99.90;;;;;;5018642;28;20053;-92
2021/09/27 04:23:58;;;;;;;22.85;16.10;;;16.20;99.90;;;;;;5018847;28;20045;-92
2021/09/27 04:26:30;;;;;;;19.30;14.57;;;16.30;99.90;;;;;;5018681;28;20123;-93
2021/09/27 04:29:16;;;;;;;19.35;15.13;;;16.20;99.90;;;;;;5018200;28;20055;-92
2021/09/27 04:32:20;;;;;;;21.55;14.98;;;16.30;99.90;;;;;;5018995;28;20046;-92
2021/09/27 04:35:07;;;;;;;27.10;17.00;;;16.30;99.90;;;;;;5026759;28;20057;-92
2021/09/27 04:37:34;;;;;;;30.50;17.90;;;16.30;99.90;;;;;;5075252;28;20060;-91
2021/09/27 04:40:03;;;;;;;54.13;21.65;;;16.20;99.90;;;;;;5018521;28;20145;-93
2021/09/27 04:42:56;;;;;;;34.50;15.75;;;16.20;99.90;;;;;;5018304;28;20063;-93
2021/09/27 04:45:41;;;;;;;30.05;16.92;;;16.20;99.90;;;;;;5018270;28;20144;-92
2021/09/27 04:48:30;;;;;;;22.80;17.30;;;16.20;99.90;;;;;;5018182;28;20049;-92
2021/09/27 04:50:59;;;;;;;21.98;15.40;;;16.20;99.90;;;;;;5018240;28;20490;-92
2021/09/27 04:53:36;;;;;;;17.48;13.07;;;16.20;99.90;;;;;;5017925;28;20045;-92
2021/09/27 04:56:18;;;;;;;38.17;18.50;;;16.10;99.90;;;;;;5017898;28;20053;-91
2021/09/27 04:59:13;;;;;;;20.05;14.70;;;16.00;99.90;;;;;;5018191;28;20049;-92
2021/09/27 05:02:10;;;;;;;33.85;17.58;;;16.00;99.90;;;;;;5018555;28;20054;-92
2021/09/27 05:05:22;;;;;;;23.77;14.50;;;16.00;99.90;;;;;;5018226;28;20494;-90
2021/09/27 05:07:59;;;;;;;27.33;14.20;;;16.00;99.90;;;;;;5007782;28;20516;-91
2021/09/27 05:10:56;;;;;;;22.00;16.20;;;15.90;99.90;;;;;;5035209;28;20136;-92
2021/09/27 05:13:54;;;;;;;35.28;24.92;;;15.90;99.90;;;;;;5050583;28;20053;-92
2021/09/27 05:16:28;;;;;;;30.23;22.92;;;16.00;99.90;;;;;;5034847;28;20140;-92
2021/09/27 05:19:31;;;;;;;28.95;17.60;;;16.00;99.90;;;;;;5034879;28;20049;-92
2021/09/27 05:22:36;;;;;;;18.83;14.63;;;16.00;99.90;;;;;;5017827;28;20053;-92
2021/09/27 05:25:30;;;;;;;29.48;16.95;;;16.10;99.90;;;;;;5017454;28;20057;-92
2021/09/27 05:28:23;;;;;;;36.08;26.40;;;16.10;99.90;;;;;;5037853;28;20049;-92
2021/09/27 05:31:05;;;;;;;32.60;21.73;;;16.10;99.90;;;;;;5037981;28;20049;-92
2021/09/27 05:33:49;;;;;;;44.97;21.88;;;16.10;99.90;;;;;;5017466;28;20056;-92
2021/09/27 05:36:56;;;;;;;55.20;23.58;;;16.10;99.90;;;;;;5017409;28;20068;-92
2021/09/27 05:40:01;;;;;;;32.22;18.95;;;16.00;99.90;;;;;;5017486;28;20137;-93
2021/09/27 05:42:49;;;;;;;31.40;19.00;;;16.10;99.90;;;;;;5017739;28;20057;-93
2021/09/27 05:45:44;;;;;;;29.27;19.08;;;16.20;99.90;;;;;;5016805;28;20045;-92
2021/09/27 05:48:35;;;;;;;25.48;17.48;;;16.30;99.90;;;;;;5034622;28;20084;-92
2021/09/27 05:51:13;;;;;;;28.10;17.95;;;16.30;99.90;;;;;;5016817;28;20132;-92
2021/09/27 05:53:58;;;;;;;29.75;18.73;;;16.30;99.90;;;;;;5024430;28;20052;-92
2021/09/27 05:56:45;;;;;;;25.25;17.65;;;16.30;99.90;;;;;;5037989;28;20117;-92
2021/09/27 05:59:22;;;;;;;29.67;22.50;;;16.40;99.90;;;;;;5016813;28;20144;-92
2021/09/27 06:02:28;;;;;;;32.08;22.73;;;16.50;99.90;;;;;;5016963;28;20054;-91
2021/09/27 06:05:42;;;;;;;30.33;21.27;;;16.50;99.90;;;;;;5016840;28;20136;-92
2021/09/27 06:08:19;;;;;;;37.47;26.80;;;16.60;99.90;;;;;;4957454;28;20065;-92
2021/09/27 06:11:07;;;;;;;56.33;35.95;;;16.70;99.90;;;;;;5009157;28;20057;-92
2021/09/27 06:13:39;;;;;;;60.78;42.33;;;16.80;99.90;;;;;;5041459;28;20056;-92
2021/09/27 06:16:13;;;;;;;54.78;37.22;;;16.90;99.90;;;;;;5016747;28;20053;-92
2021/09/27 06:19:07;;;;;;;48.40;32.55;;;16.90;99.90;;;;;;4997076;28;20052;-93
2021/09/27 06:21:54;;;;;;;49.28;28.50;;;17.00;99.90;;;;;;5013211;28;20064;-92
2021/09/27 06:24:55;;;;;;;25.90;20.20;;;17.10;99.90;;;;;;5013402;28;20054;-92
2021/09/27 06:27:47;;;;;;;24.95;18.85;;;17.10;99.90;;;;;;4996452;28;20058;-91
2021/09/27 06:30:34;;;;;;;27.38;18.33;;;17.20;99.90;;;;;;4996727;28;20406;-92
2021/09/27 06:33:10;;;;;;;31.40;19.13;;;17.10;99.90;;;;;;5010246;28;20058;-92
2021/09/27 06:35:38;;;;;;;16.35;14.43;;;17.00;99.90;;;;;;4996671;28;20046;-92
2021/09/27 06:38:07;;;;;;;22.52;16.00;;;16.80;99.90;;;;;;4996940;28;20514;-92
2021/09/27 06:40:40;;;;;;;29.45;16.88;;;16.80;99.90;;;;;;4996903;28;20493;-91
2021/09/27 06:43:11;;;;;;;22.10;15.15;;;16.80;99.90;;;;;;4997063;28;20473;-91
2021/09/27 06:45:38;;;;;;;16.35;13.73;;;16.90;99.90;;;;;;4996741;28;20129;-91
2021/09/27 06:48:05;;;;;;;17.02;13.45;;;16.90;99.90;;;;;;4996812;28;20145;-91
2021/09/27 06:50:32;;;;;;;13.07;11.77;;;17.00;99.90;;;;;;4996999;28;20494;-91
2021/09/27 06:52:58;;;;;;;12.35;11.05;;;17.00;99.90;;;;;;4996919;28;20402;-91
2021/09/27 06:55:25;;;;;;;13.35;11.70;;;17.00;99.90;;;;;;4997292;28;20042;-91
2021/09/27 06:57:52;;;;;;;14.90;12.25;;;17.00;99.90;;;;;;4997272;28;20060;-91
2021/09/27 07:00:19;;;;;;;13.38;12.07;;;17.00;99.90;;;;;;4997232;28;20519;-91
2021/09/27 07:02:46;;;;;;;14.80;11.82;;;17.10;99.90;;;;;;4996576;28;20050;-91
2021/09/27 07:05:12;;;;;;;15.63;12.25;;;17.10;99.90;;;;;;4995448;28;20112;-91
2021/09/27 07:07:40;;;;;;;13.05;11.23;;;17.20;99.90;;;;;;4995510;28;20116;-91
2021/09/27 07:10:11;;;;;;;11.60;10.50;;;17.20;99.90;;;;;;4995503;28;20467;-91
2021/09/27 07:12:38;;;;;;;11.90;10.15;;;17.10;99.90;;;;;;4998354;28;20057;-91
2021/09/27 07:15:05;;;;;;;14.80;11.73;;;17.10;99.90;;;;;;5013928;28;20113;-92
2021/09/27 07:17:32;;;;;;;17.95;11.95;;;17.00;99.90;;;;;;4995637;28;20056;-92
2021/09/27 07:19:59;;;;;;;13.90;11.95;;;16.90;99.90;;;;;;4995994;28;20056;-92
2021/09/27 07:22:26;;;;;;;13.75;12.23;;;16.90;99.90;;;;;;5013815;28;20132;-92
2021/09/27 07:24:53;;;;;;;15.07;12.43;;;16.90;99.90;;;;;;5013721;28;20076;-91
2021/09/27 07:27:19;;;;;;;13.73;12.32;;;16.90;99.90;;;;;;4996140;28;20046;-92
2021/09/27 07:29:48;;;;;;;14.50;13.00;;;17.00;99.90;;;;;;5013531;28;20515;-92
2021/09/27 07:32:15;;;;;;;18.42;12.93;;;17.20;99.90;;;;;;4996049;28;20046;-91
2021/09/27 07:34:41;;;;;;;19.65;13.80;;;17.30;99.90;;;;;;4996101;28;20486;-92
2021/09/27 07:37:08;;;;;;;20.58;14.05;;;17.50;99.90;;;;;;4995914;28;20056;-91
2021/09/27 07:39:35;;;;;;;20.83;13.25;;;17.70;99.90;;;;;;4996192;28;20046;-91
2021/09/27 07:42:03;;;;;;;16.05;11.77;;;17.90;99.90;;;;;;4996013;28;20128;-91
2021/09/27 07:44:30;;;;;;;15.15;11.52;;;18.00;99.90;;;;;;4998040;28;20052;-91
2021/09/27 07:46:56;;;;;;;17.48;11.77;;;18.10;99.90;;;;;;5016757;28;20060;-91
2021/09/27 07:49:23;;;;;;;13.25;10.95;;;18.20;99.90;;;;;;4999590;28;20076;-91
2021/09/27 07:51:53;;;;;;;10.75;9.75;;;18.30;99.90;;;;;;4999910;28;20050;-91
2021/09/27 07:54:20;;;;;;;10.43;8.15;;;18.40;99.90;;;;;;4999880;28;20045;-90
2021/09/27 07:56:46;;;;;;;9.38;8.45;;;18.60;99.90;;;;;;4999660;28;20486;-90
2021/09/27 07:59:13;;;;;;;8.57;7.85;;;18.60;99.90;;;;;;4999498;28;20141;-90
2021/09/27 08:01:40;;;;;;;8.90;7.97;;;18.70;99.90;;;;;;4999482;28;20115;-90
2021/09/27 08:04:09;;;;;;;8.68;7.78;;;18.90;99.90;;;;;;4999317;28;20084;-90
2021/09/27 08:06:36;;;;;;;9.20;8.23;;;19.10;99.90;;;;;;5000708;28;20068;-90
2021/09/27 08:09:04;;;;;;;7.75;7.03;;;19.30;99.90;;;;;;5002773;28;20093;-90
2021/09/27 08:11:33;;;;;;;11.80;7.35;;;19.30;99.90;;;;;;5017514;28;20141;-90
2021/09/27 08:14:00;;;;;;;7.88;7.05;;;19.30;99.90;;;;;;5001123;28;20057;-87
2021/09/27 08:16:28;;;;;;;11.20;7.53;;;19.40;99.90;;;;;;5000448;28;20064;-90
2021/09/27 08:18:55;;;;;;;7.68;7.07;;;19.40;99.90;;;;;;5000803;28;20041;-89
2021/09/27 08:21:22;;;;;;;7.25;6.65;;;19.60;99.90;;;;;;5000571;28;20064;-89
2021/09/27 08:23:49;;;;;;;7.53;6.82;;;19.80;99.90;;;;;;5000741;28;20498;-89
2021/09/27 08:26:17;;;;;;;7.25;6.65;;;19.80;99.90;;;;;;5000650;28;20137;-89
2021/09/27 08:28:45;;;;;;;8.13;7.38;;;19.90;99.90;;;;;;5018613;28;20092;-89
2021/09/27 08:31:19;;;;;;;10.63;8.52;;;20.00;99.90;;;;;;5015694;28;20065;-89
2021/09/27 08:33:48;;;;;;;11.38;7.45;;;19.80;99.90;;;;;;5007901;28;20064;-88
2021/09/27 08:36:22;;;;;;;11.15;8.38;;;19.80;99.90;;;;;;5001637;28;20042;-89
2021/09/27 08:38:49;;;;;;;11.52;8.68;;;19.60;99.90;;;;;;5000831;28;20050;-88
2021/09/27 08:41:32;;;;;;;18.75;9.85;;;19.50;99.90;;;;;;4999905;28;20077;-88
2021/09/27 08:44:42;;;;;;;12.77;9.00;;;19.50;99.90;;;;;;5000452;28;20064;-87
2021/09/27 08:47:18;;;;;;;8.07;7.38;;;19.80;99.90;;;;;;4960358;28;20117;-87
2021/09/27 08:49:51;;;;;;;7.50;6.75;;;20.30;99.90;;;;;;5000390;28;20145;-85
2021/09/27 08:52:21;;;;;;;7.70;7.00;;;20.50;99.90;;;;;;5007654;28;20060;-86
2021/09/27 08:54:51;;;;;;;6.78;6.18;;;20.80;99.90;;;;;;5025668;28;20137;-87
2021/09/27 08:57:33;;;;;;;6.50;6.00;;;21.10;99.90;;;;;;5007063;28;20046;-86
2021/09/27 09:00:32;;;;;;;9.40;6.88;;;21.50;99.90;;;;;;5008657;28;20128;-86
2021/09/27 09:03:30;;;;;;;7.28;6.03;;;22.00;99.90;;;;;;5038558;28;20059;-86
2021/09/27 09:06:07;;;;;;;6.25;5.65;;;22.30;99.90;;;;;;5038142;28;20128;-86
2021/09/27 09:08:42;;;;;;;5.55;5.05;;;22.70;99.90;;;;;;5011868;28;20057;-86
2021/09/27 09:11:30;;;;;;;5.82;5.30;;;22.70;99.90;;;;;;5017097;28;20056;-86
2021/09/27 09:14:08;;;;;;;6.07;5.40;;;22.80;99.90;;;;;;5017017;28;20049;-86
2021/09/27 09:16:35;;;;;;;5.90;5.25;;;23.30;99.90;;;;;;5016921;28;20085;-85
2021/09/27 09:19:05;;;;;;;5.50;4.90;;;23.30;99.90;;;;;;5016962;28;20077;-85
2021/09/27 09:21:42;;;;;;;4.50;4.18;;;24.20;99.90;;;;;;5017630;28;20494;-86
2021/09/27 09:24:15;;;;;;;7.70;4.60;;;25.90;99.90;;;;;;5017076;28;20050;-85
2021/09/27 09:26:47;;;;;;;5.57;3.70;;;28.50;99.90;;;;;;5016998;28;20457;-85
2021/09/27 09:29:25;;;;;;;5.43;3.70;;;29.80;99.90;;;;;;5016634;28;20136;-83
2021/09/27 09:31:56;;;;;;;5.72;3.60;;;31.10;99.90;;;;;;5016683;28;20041;-86
2021/09/27 09:34:34;;;;;;;10.85;4.20;;;32.60;95.10;;;;;;5033929;28;20077;-86
2021/09/27 09:37:13;;;;;;;4.30;4.00;;;31.60;92.60;;;;;;5033710;28;20145;-85
2021/09/27 09:39:53;;;;;;;7.18;4.63;;;29.70;94.60;;;;;;5016465;28;20100;-84
2021/09/27 09:42:20;;;;;;;6.35;3.83;;;29.00;97.50;;;;;;5033785;28;20465;-85
2021/09/27 09:44:53;;;;;;;4.72;3.72;;;28.60;99.90;;;;;;5033556;28;20054;-83
2021/09/27 09:47:26;;;;;;;4.25;3.75;;;28.20;98.90;;;;;;5016379;28;20053;-85
2021/09/27 09:50:13;;;;;;;3.63;3.33;;;29.30;96.60;;;;;;5032499;28;20121;-84
2021/09/27 09:52:44;;;;;;;3.92;3.63;;;28.70;96.10;;;;;;5018395;28;20498;-85
2021/09/27 09:55:34;;;;;;;4.43;3.30;;;28.10;96.50;;;;;;5015922;28;20057;-85
2021/09/27 09:58:08;;;;;;;3.63;3.40;;;27.60;98.40;;;;;;5048549;28;20056;-84
2021/09/27 10:00:50;;;;;;;4.20;3.10;;;28.50;96.30;;;;;;5015605;28;20049;-84
2021/09/27 10:03:43;;;;;;;5.10;3.28;;;29.50;96.80;;;;;;5033188;28;20065;-84
2021/09/27 10:06:23;;;;;;;2.95;2.70;;;30.50;93.30;;;;;;5026058;28;20099;-85
2021/09/27 10:08:58;;;;;;;2.90;2.70;;;31.10;90.00;;;;;;5015333;28;20076;-82
2021/09/27 10:11:32;;;;;;;3.00;2.72;;;31.30;89.40;;;;;;5015305;28;20081;-83
2021/09/27 10:14:23;;;;;;;3.28;3.10;;;31.50;87.90;;;;;;5016059;28;20050;-82
2021/09/27 10:16:57;;;;;;;3.72;3.22;;;31.40;81.90;;;;;;5033130;28;20053;-84
2021/09/27 10:19:27;;;;;;;3.75;2.90;;;30.40;85.60;;;;;;5032675;28;20466;-85
2021/09/27 10:22:11;;;;;;;7.35;3.28;;;30.50;87.50;;;;;;5015849;28;20053;-84
2021/09/27 10:24:41;;;;;;;11.73;5.43;;;30.20;87.10;;;;;;5015427;28;20048;-84
2021/09/27 10:27:30;;;;;;;4.55;3.10;;;29.30;88.10;;;;;;5032936;28;20417;-85
2021/09/27 10:30:03;;;;;;;3.75;3.42;;;29.10;91.00;;;;;;5015931;28;20468;-85
2021/09/27 10:32:54;;;;;;;4.50;3.42;;;29.50;91.30;;;;;;5015902;28;20490;-84
2021/09/27 10:35:26;;;;;;;4.90;3.60;;;29.20;91.10;;;;;;5015543;28;20049;-85
2021/09/27 10:38:08;;;;;;;3.80;3.53;;;27.90;91.40;;;;;;5015418;28;20123;-84
2021/09/27 10:40:36;;;;;;;8.35;4.32;;;27.20;93.10;;;;;;5015557;28;20092;-85
2021/09/27 10:43:07;;;;;;;22.10;5.28;;;27.10;96.60;;;;;;5015204;28;20052;-85
2021/09/27 10:45:37;;;;;;;3.40;3.10;;;28.30;96.00;;;;;;5015554;28;20123;-86
2021/09/27 10:48:05;;;;;;;4.63;3.28;;;30.80;91.10;;;;;;5015614;28;20046;-85
2021/09/27 10:50:38;;;;;;;3.35;3.08;;;31.70;87.50;;;;;;5016218;28;20207;-83
2021/09/27 10:53:15;;;;;;;3.78;3.42;;;33.10;80.30;;;;;;5033002;28;20057;-83
2021/09/27 10:56:14;;;;;;;5.63;3.60;;;33.50;75.80;;;;;;5015623;28;20053;-85
2021/09/27 10:59:06;;;;;;;4.25;3.67;;;30.50;79.90;;;;;;5015229;28;20144;-85
2021/09/27 11:01:59;;;;;;;4.15;3.70;;;29.00;82.70;;;;;;5005377;28;20052;-85
2021/09/27 11:04:42;;;;;;;4.60;4.30;;;27.70;87.80;;;;;;5015398;28;20049;-84
2021/09/27 11:07:24;;;;;;;4.43;4.00;;;26.40;91.70;;;;;;5017959;28;20129;-85
2021/09/27 11:09:54;;;;;;;4.20;4.00;;;25.70;93.80;;;;;;5029822;28;20056;-87
2021/09/27 11:12:24;;;;;;;4.97;4.22;;;25.40;96.00;;;;;;5015587;28;20451;-85
2021/09/27 11:15:17;;;;;;;5.15;4.38;;;25.30;97.60;;;;;;5032564;28;20561;-86
2021/09/27 11:17:47;;;;;;;4.30;3.90;;;25.20;98.50;;;;;;5016118;28;20072;-86
2021/09/27 11:20:38;;;;;;;10.43;4.70;;;25.50;97.70;;;;;;5017637;28;20486;-86
2021/09/27 11:23:20;;;;;;;4.15;3.70;;;26.30;98.30;;;;;;5010825;28;20048;-86
2021/09/27 11:26:04;;;;;;;7.05;3.97;;;27.80;95.00;;;;;;5021894;28;20052;-86
2021/09/27 11:28:50;;;;;;;4.30;3.90;;;27.90;93.40;;;;;;5016847;28;20144;-83
2021/09/27 11:31:25;;;;;;;5.53;3.92;;;27.90;92.70;;;;;;5016599;28;20080;-84
2021/09/27 11:34:30;;;;;;;4.43;4.05;;;27.50;93.80;;;;;;4999491;28;20052;-86
2021/09/27 11:37:15;;;;;;;5.75;4.30;;;27.00;93.80;;;;;;4995980;28;20074;-85
2021/09/27 11:39:48;;;;;;;3.97;3.78;;;27.40;94.70;;;;;;5016784;28;20049;-83
2021/09/27 11:42:21;;;;;;;5.75;4.07;;;27.70;93.20;;;;;;5016771;28;20376;-87
2021/09/27 11:45:13;;;;;;;4.17;3.83;;;27.60;95.50;;;;;;4999328;28;20050;-84
2021/09/27 11:47:40;;;;;;;4.30;4.00;;;27.60;94.40;;;;;;4999421;28;20056;-84
2021/09/27 11:50:26;;;;;;;4.18;3.83;;;27.60;92.80;;;;;;5016534;28;20049;-85
2021/09/27 11:53:28;;;;;;;4.32;4.03;;;27.60;92.00;;;;;;4999599;28;20096;-87
2021/09/27 11:56:07;;;;;;;4.88;3.97;;;27.60;90.80;;;;;;4999048;28;20061;-85
2021/09/27 11:58:38;;;;;;;4.22;3.83;;;27.40;91.40;;;;;;4999250;28;20050;-85
2021/09/27 12:01:31;;;;;;;4.40;4.03;;;26.80;93.90;;;;;;4999162;28;20137;-87
2021/09/27 12:04:24;;;;;;;4.93;4.13;;;26.10;93.40;;;;;;4998979;28;20587;-87
2021/09/27 12:07:00;;;;;;;7.30;4.13;;;25.50;96.80;;;;;;4995224;28;20129;-88
2021/09/27 12:09:35;;;;;;;4.85;4.28;;;25.30;97.20;;;;;;4999052;28;20084;-86
2021/09/27 12:12:03;;;;;;;7.57;5.25;;;24.80;97.10;;;;;;4998926;28;20080;-87
2021/09/27 12:14:43;;;;;;;7.70;4.75;;;24.20;98.30;;;;;;4998246;28;20054;-86
2021/09/27 12:17:15;;;;;;;5.30;4.80;;;24.00;99.90;;;;;;4998347;28;20524;-87
2021/09/27 12:20:02;;;;;;;4.93;4.53;;;24.30;99.90;;;;;;4998922;28;20538;-87
2021/09/27 12:22:33;;;;;;;4.30;4.00;;;24.60;99.90;;;;;;4998755;28;20052;-87
2021/09/27 12:25:07;;;;;;;4.47;4.10;;;25.10;99.90;;;;;;5016425;28;20486;-87
2021/09/27 12:27:34;;;;;;;4.50;4.10;;;25.10;99.90;;;;;;5016516;28;20041;-87
2021/09/27 12:30:09;;;;;;;4.57;4.22;;;25.10;99.90;;;;;;4999656;28;20042;-88
2021/09/27 12:32:40;;;;;;;39.03;9.75;;;24.70;99.90;;;;;;4999036;28;20053;-87
2021/09/27 12:35:14;;;;;;;5.68;4.40;;;24.30;99.90;;;;;;5015566;28;20042;-88
2021/09/27 12:37:42;;;;;;;;;;;24.00;99.90;;;;;;4998959;28;20050;-88
2021/09/27 12:40:16;;;;;;;4.68;4.15;;;23.90;99.90;;;;;;4998439;28;20381;-87
2021/09/27 12:42:59;;;;;;;5.38;4.15;;;23.90;99.90;;;;;;4998514;28;20046;-86
2021/09/27 12:45:36;;;;;;;4.63;4.22;;;23.80;99.90;;;;;;5015475;28;20056;-90
2021/09/27 12:48:07;;;;;;;13.10;4.80;;;23.60;99.90;;;;;;4998232;28;20124;-87
2021/09/27 12:50:36;;;;;;;4.38;4.07;;;23.30;99.90;;;;;;4998606;28;20137;-87
2021/09/27 12:53:09;;;;;;;9.90;4.30;;;23.30;99.90;;;;;;4998110;28;20050;-88
2021/09/27 12:55:54;;;;;;;4.70;4.40;;;23.30;99.90;;;;;;5015604;28;20416;-88
2021/09/27 12:58:39;;;;;;;6.07;4.18;;;23.30;99.90;;;;;;4998032;28;20050;-87
2021/09/27 13:01:11;;;;;;;4.55;4.20;;;23.20;99.90;;;;;;4997660;28;20045;-88
2021/09/27 13:03:46;;;;;;;7.40;4.73;;;23.30;99.90;;;;;;4998179;28;20054;-87
2021/09/27 13:06:16;;;;;;;5.40;4.13;;;23.20;99.90;;;;;;4997921;28;20060;-86
2021/09/27 13:08:49;;;;;;;4.10;3.72;;;23.20;99.90;;;;;;4998221;28;20140;-89
2021/09/27 13:11:22;;;;;;;3.80;3.50;;;23.30;99.90;;;;;;4997650;28;20060;-90
2021/09/27 13:14:04;;;;;;;4.10;3.80;;;23.20;99.90;;;;;;5014917;28;20494;-86
2021/09/27 13:16:34;;;;;;;4.97;3.95;;;22.90;99.90;;;;;;4997711;28;20045;-86
2021/09/27 13:19:02;;;;;;;4.22;3.83;;;22.80;99.90;;;;;;4996870;28;20053;-87
2021/09/27 13:21:45;;;;;;;3.95;3.65;;;22.70;99.90;;;;;;4997711;28;20054;-86
2021/09/27 13:24:19;;;;;;;4.03;3.72;;;22.70;99.90;;;;;;4997656;28;20057;-87
2021/09/27 13:27:08;;;;;;;8.68;3.95;;;22.80;99.90;;;;;;4997539;28;20068;-86
2021/09/27 13:29:40;;;;;;;4.07;3.67;;;22.80;99.90;;;;;;4997565;28;20048;-87
2021/09/27 13:32:10;;;;;;;4.82;4.10;;;22.80;99.90;;;;;;4997361;28;20054;-86